Bayside Park, Mississippi
Current Conditions -  °F | °C
As of 12:30 PM on Sunday 21 Dec 2014 (Local Time) from KASD Reporting Station
Broken Clouds Broken Clouds  
Wind Chill: 59°   Ceiling: 1800
Heat Index: 59°   Visibility: 10mi
Dew Point: 50°   Wind: 0mph
Humidity: 72%   Direction: NA
Pressure: 30.07"   Gusts: NA
Location:  30.3134°N, 89.5231°W
Report Text: KASD 211830Z AUTO 00000KT 10SM BKN018 BKN043 15/10 A3007 RMK AO2 T01500100
Loading
Personal Weather Stations






























Interactive Weather Map New forecast layout! Learn more

10-Day Weather Forecast

Advertisements
Track Severe Weather on mobile